Overview Statistics Trail Chart Weather Telemetry Raw packets
 

This is the latest recevied weather packets stored in our database for station/object N5ATR. If no packets are shown the sender has not sent any weather packets the latest 10 day(s).

<< 48 49 50 51 52 53 54 >>
Time Temp. Humidity Pressure Rain* Wind** Luminosity Snow
1788359141 20° C 54% 1024.1 hPa 0 mm - 107 W/m² -
1788358836 19.44° C 58% 1024.2 hPa 0 mm - 31 W/m² -
1788358536 18.89° C 61% 1024.5 hPa 0 mm - 34 W/m² -
1788358232 18.33° C 63% 1024.4 hPa 0 mm - 30 W/m² -
1788357932 17.78° C 66% 1024.5 hPa 0 mm - 30 W/m² -
1788357627 17.78° C 67% 1024.4 hPa 0 mm - 30 W/m² -
1788357326 17.22° C 69% 1024.2 hPa 0 mm - 27 W/m² -
1788357021 16.67° C 70% 1024.2 hPa 0 mm - 26 W/m² -
1788356718 16.11° C 72% 1024 hPa 0 mm - 25 W/m² -
1788356417 15.56° C 73% 1024.1 hPa 0 mm - 24 W/m² -
1788356112 15.56° C 74% 1024.1 hPa 0 mm - 23 W/m² -
1788355812 15° C 75% 1024.1 hPa 0 mm - 22 W/m² -
1788355507 14.44° C 77% 1023.9 hPa 0 mm - 21 W/m² -
1788355202 13.89° C 79% 1023.8 hPa 0 mm - 19 W/m² -
1788354899 13.89° C 80% 1023.8 hPa 0 mm - 18 W/m² -
1788354598 12.78° C 83% 1023.8 hPa 0 mm - 16 W/m² -
1788354294 12.78° C 85% 1023.5 hPa 0 mm - 14 W/m² -
1788353989 12.22° C 84% 1023.6 hPa 0 mm - 11 W/m² -
1788353685 12.22° C 84% 1023.6 hPa 0 mm - 9 W/m² -
1788353381 12.78° C 83% 1023.5 hPa 0 mm - 6 W/m² -
1788353077 12.78° C 83% 1023.6 hPa 0 mm - 4 W/m² -
1788352772 12.78° C 83% 1023.9 hPa 0 mm - 2 W/m² -
1788352468 12.78° C 83% 1023.9 hPa 0 mm - 1 W/m² -
1788352166 12.78° C 82% 1023.5 hPa 0 mm - 0 W/m² -
1788351862 13.33° C 81% 1023.5 hPa 0 mm - 0 W/m² -

* Rain latest hour (hover to see other rain measurements)
** Current wind speed in m/s (hover to see current wind gust speed)